National Weather Service United States Department of Commerce
Click Here for Latest Airport Weather Warnings
 
Latest Huntsville TAF


000
FTUS44 KHUN 202320
TAFHSV
TAF
KHSV 202320Z 2100/2124 VRB04KT P6SM SCT070
FM211500 16012G17KT P6SM SCT250=

Latest Muscle Shoals TAF


000
FTUS44 KHUN 202320
TAFMSL
TAF
KMSL 202320Z 2100/2124 VRB04KT P6SM SCT070
FM211500 18012G17KT P6SM SCT250=


Back to Main Huntsville Weather Forecast Office Page